TAF KBLI
AMD KBLI 081823Z 0818/0918 19005KT P6SM SCT040 BKN050 FM082000 20010G20KT P6SM BKN050 FM090300 17006KT P6SM OVC050 FM091100 18008KT P6SM OVC030=
METAR KBLI
WC KBLI
WS KBLI
WV KBLI